Time,TemperatureF,DewpointF,PressureIn,WindDirection,WindDirectionDegrees,WindSpeedMPH,WindSpeedGustMPH,Humidity,HourlyPrecipIn,Conditions,Clouds,dailyrainin,SoftwareType,DateUTC
2013-04-30 00:01:00,59.4,50.7,30.05,SE,135,6.9,6.9,73,0.00,RA,,0.00,WeatherDisplay:10.37,2013-04-30 04:01:00,
2013-04-30 00:06:00,59.2,50.5,30.04,SE,135,3.5,3.5,73,0.00,RA,,0.00,WeatherDisplay:10.37,2013-04-30 04:06:00,
2013-04-30 00:11:00,59.0,50.7,30.04,SE,135,6.9,6.9,74,0.00,,,0.00,WeatherDisplay:10.37,2013-04-30 04:11:00,
2013-04-30 00:16:00,59.0,50.7,30.05,East,90,2.3,2.3,74,0.00,,,0.00,WeatherDisplay:10.37,2013-04-30 04:16:00,
2013-04-30 00:21:00,58.8,50.9,30.05,SE,135,2.3,2.3,75,0.00,,,0.00,WeatherDisplay:10.37,2013-04-30 04:21:00,
2013-04-30 00:26:00,58.8,50.9,30.05,SE,135,3.5,3.5,75,0.00,,,0.00,WeatherDisplay:10.37,2013-04-30 04:26:00,
2013-04-30 00:31:00,58.8,50.9,30.05,SW,225,2.2,2.2,75,0.00,,,0.00,WeatherDisplay:10.37,2013-04-30 04:31:00,
2013-04-30 00:36:00,58.8,51.3,30.05,SE,135,3.5,0.0,76,0.00,,,0.00,WeatherDisplay:10.37,2013-04-30 04:36:00,
2013-04-30 00:41:00,58.8,51.3,30.05,SE,135,2.3,2.3,76,0.00,,,0.00,WeatherDisplay:10.37,2013-04-30 04:41:00,
2013-04-30 00:46:00,58.8,51.3,30.06,SE,135,3.5,3.5,76,0.00,,,0.00,WeatherDisplay:10.37,2013-04-30 04:46:00,
2013-04-30 00:51:00,58.6,51.1,30.06,NW,315,3.5,3.5,76,0.00,,,0.00,WeatherDisplay:10.37,2013-04-30 04:51:00,
2013-04-30 00:56:00,58.8,51.3,30.06,East,90,3.5,3.5,76,0.00,,,0.00,WeatherDisplay:10.37,2013-04-30 04:56:00,
2013-04-30 01:01:00,58.8,51.3,30.06,SW,225,5.4,5.4,76,0.00,,,0.00,WeatherDisplay:10.37,2013-04-30 05:01:00,
2013-04-30 01:06:00,58.8,51.3,30.05,South,180,3.5,3.5,76,0.00,,,0.00,WeatherDisplay:10.37,2013-04-30 05:06:00,
2013-04-30 01:11:00,58.8,51.3,30.06,SW,225,2.3,2.3,76,0.00,,,0.00,WeatherDisplay:10.37,2013-04-30 05:11:00,
2013-04-30 01:16:00,58.8,51.3,30.06,South,180,3.5,3.5,76,0.00,,,0.00,WeatherDisplay:10.37,2013-04-30 05:16:00,
2013-04-30 01:21:00,58.6,51.1,30.06,East,90,2.3,2.3,76,0.00,,,0.00,WeatherDisplay:10.37,2013-04-30 05:21:00,
2013-04-30 01:26:00,58.5,50.9,30.06,SE,135,2.3,2.3,76,0.00,,,0.00,WeatherDisplay:10.37,2013-04-30 05:26:00,
2013-04-30 01:31:00,58.5,50.9,30.06,SW,225,2.3,2.3,76,0.00,,,0.00,WeatherDisplay:10.37,2013-04-30 05:31:00,
2013-04-30 01:36:00,58.5,50.9,30.06,South,180,4.6,4.6,76,0.00,,,0.00,WeatherDisplay:10.37,2013-04-30 05:36:00,
2013-04-30 01:41:00,58.3,51.1,30.06,South,180,5.8,5.8,77,0.00,,,0.00,WeatherDisplay:10.37,2013-04-30 05:41:00,
2013-04-30 01:46:00,58.3,51.1,30.06,SW,225,3.5,3.5,77,0.00,,,0.00,WeatherDisplay:10.37,2013-04-30 05:46:00,
2013-04-30 01:51:00,58.3,51.1,30.06,SW,225,1.1,3.1,77,0.00,,,0.00,WeatherDisplay:10.37,2013-04-30 05:51:00,
2013-04-30 01:56:00,58.3,51.1,30.07,SW,225,3.8,3.8,77,0.00,,,0.00,WeatherDisplay:10.37,2013-04-30 05:56:00,
2013-04-30 02:01:00,58.3,51.1,30.06,North,10,3.5,3.5,77,0.00,,,0.00,WeatherDisplay:10.37,2013-04-30 06:01:00,
2013-04-30 02:06:00,58.3,51.1,30.06,North,0,3.5,3.5,77,0.00,,,0.00,WeatherDisplay:10.37,2013-04-30 06:06:00,
2013-04-30 02:11:00,58.3,51.1,30.06,North,0,3.5,3.5,77,0.00,,,0.00,WeatherDisplay:10.37,2013-04-30 06:11:00,
2013-04-30 02:16:00,58.3,51.1,30.06,North,0,3.5,3.5,77,0.00,,,0.00,WeatherDisplay:10.37,2013-04-30 06:16:00,
2013-04-30 02:21:00,57.9,51.1,30.06,NW,315,5.8,5.8,78,0.00,,,0.00,WeatherDisplay:10.37,2013-04-30 06:21:00,
2013-04-30 02:26:00,57.9,51.1,30.06,South,180,3.5,3.5,78,0.00,,,0.00,WeatherDisplay:10.37,2013-04-30 06:26:00,
2013-04-30 02:31:00,57.9,51.1,30.06,South,180,3.5,3.5,78,0.00,,,0.00,WeatherDisplay:10.37,2013-04-30 06:31:00,
2013-04-30 02:36:00,57.9,51.1,30.06,North,0,3.5,3.5,78,0.00,,,0.00,WeatherDisplay:10.37,2013-04-30 06:36:00,
2013-04-30 02:41:00,57.9,51.1,30.06,SE,135,3.5,3.5,78,0.00,,,0.00,WeatherDisplay:10.37,2013-04-30 06:41:00,
2013-04-30 02:46:00,58.1,51.3,30.06,SE,135,2.3,2.3,78,0.00,,,0.00,WeatherDisplay:10.37,2013-04-30 06:46:00,
2013-04-30 02:51:00,58.1,51.3,30.06,SE,135,2.3,2.3,78,0.00,,,0.00,WeatherDisplay:10.37,2013-04-30 06:51:00,
2013-04-30 02:56:00,58.1,51.3,30.06,NNE,22,3.5,3.5,78,0.00,,,0.00,WeatherDisplay:10.37,2013-04-30 06:56:00,
2013-04-30 03:01:00,58.3,51.4,30.06,NW,315,4.6,4.6,78,0.00,,,0.00,WeatherDisplay:10.37,2013-04-30 07:01:00,
2013-04-30 03:06:00,58.3,51.4,30.06,SE,135,4.6,4.6,78,0.00,,,0.00,WeatherDisplay:10.37,2013-04-30 07:06:00,
2013-04-30 03:11:00,58.3,51.4,30.06,NW,315,5.8,5.8,78,0.00,,,0.00,WeatherDisplay:10.37,2013-04-30 07:11:00,
2013-04-30 03:16:00,58.3,51.8,30.06,SW,225,4.6,4.6,79,0.00,,,0.00,WeatherDisplay:10.37,2013-04-30 07:16:00,
2013-04-30 03:21:00,58.1,52.0,30.06,SE,135,3.5,3.5,80,0.00,,,0.00,WeatherDisplay:10.37,2013-04-30 07:21:00,
2013-04-30 03:26:00,58.1,52.0,30.06,SE,135,3.5,3.5,80,0.00,,,0.00,WeatherDisplay:10.37,2013-04-30 07:26:00,
2013-04-30 03:32:00,58.1,52.0,30.06,North,6,3.5,3.5,80,0.00,,,0.00,WeatherDisplay:10.37,2013-04-30 07:32:00,
2013-04-30 03:37:00,57.7,52.6,30.07,South,180,3.5,3.5,83,0.00,,,0.00,WeatherDisplay:10.37,2013-04-30 07:37:00,
2013-04-30 03:42:00,57.7,52.9,30.07,South,180,3.5,3.5,84,0.00,,,0.00,WeatherDisplay:10.37,2013-04-30 07:42:00,
2013-04-30 03:47:00,57.7,52.9,30.07,SW,225,2.3,2.3,84,0.00,,,0.00,WeatherDisplay:10.37,2013-04-30 07:47:00,
2013-04-30 03:52:00,57.6,52.8,30.07,SE,135,3.5,3.5,84,0.00,,,0.00,WeatherDisplay:10.37,2013-04-30 07:52:00,
2013-04-30 03:57:00,57.9,53.1,30.08,South,180,4.5,4.5,84,0.00,,,0.00,WeatherDisplay:10.37,2013-04-30 07:57:00,
2013-04-30 04:02:00,57.9,53.1,30.08,SW,225,8.1,8.1,84,0.00,,,0.00,WeatherDisplay:10.37,2013-04-30 08:02:00,
2013-04-30 04:07:00,57.9,53.4,30.08,East,90,5.8,5.8,85,0.00,,,0.00,WeatherDisplay:10.37,2013-04-30 08:07:00,
2013-04-30 04:12:00,57.7,53.3,30.08,SE,135,5.8,5.8,85,0.00,,,0.00,WeatherDisplay:10.37,2013-04-30 08:12:00,
2013-04-30 04:17:00,57.7,53.6,30.08,South,180,3.5,3.5,86,0.00,,,0.00,WeatherDisplay:10.37,2013-04-30 08:17:00,
2013-04-30 04:22:00,57.7,53.6,30.08,SE,135,4.6,4.6,86,0.00,,,0.00,WeatherDisplay:10.37,2013-04-30 08:22:00,
2013-04-30 04:27:00,57.4,53.2,30.08,SW,225,5.8,5.8,86,0.00,,,0.00,WeatherDisplay:10.37,2013-04-30 08:27:00,
2013-04-30 04:32:00,57.6,53.4,30.08,East,90,2.3,0.0,86,0.00,,,0.00,WeatherDisplay:10.37,2013-04-30 08:32:00,
2013-04-30 04:37:00,57.7,53.6,30.08,SE,135,5.8,5.8,86,0.00,,,0.00,WeatherDisplay:10.37,2013-04-30 08:37:00,
2013-04-30 04:42:00,57.7,53.6,30.08,South,180,3.5,3.5,86,0.00,,,0.00,WeatherDisplay:10.37,2013-04-30 08:42:00,
2013-04-30 04:47:00,57.9,53.4,30.08,SW,225,3.5,3.5,85,0.00,,,0.00,WeatherDisplay:10.37,2013-04-30 08:47:00,
2013-04-30 04:52:00,58.3,53.8,30.09,SE,135,4.6,4.6,85,0.00,,,0.00,WeatherDisplay:10.37,2013-04-30 08:52:00,
2013-04-30 04:57:00,58.3,53.8,30.09,SE,135,4.6,4.6,85,0.00,,,0.00,WeatherDisplay:10.37,2013-04-30 08:57:00,
2013-04-30 05:02:00,58.5,53.6,30.09,South,180,3.5,3.8,84,0.00,,,0.00,WeatherDisplay:10.37,2013-04-30 09:02:00,
2013-04-30 05:07:00,58.5,53.6,30.09,SE,135,5.8,5.8,84,0.00,,,0.00,WeatherDisplay:10.37,2013-04-30 09:07:00,
2013-04-30 05:12:00,58.5,53.6,30.09,SE,135,5.8,5.8,84,0.00,,,0.00,WeatherDisplay:10.37,2013-04-30 09:12:00,
2013-04-30 05:17:00,58.3,53.5,30.09,South,180,5.8,5.8,84,0.00,,,0.00,WeatherDisplay:10.37,2013-04-30 09:17:00,
2013-04-30 05:22:00,58.5,53.6,30.09,SW,225,3.5,3.5,84,0.00,,,0.00,WeatherDisplay:10.37,2013-04-30 09:22:00,
2013-04-30 05:27:00,58.5,53.6,30.09,South,180,3.5,3.5,84,0.00,,,0.00,WeatherDisplay:10.37,2013-04-30 09:27:00,
2013-04-30 05:32:00,58.1,53.3,30.09,South,180,3.5,3.5,84,0.00,,,0.00,WeatherDisplay:10.37,2013-04-30 09:32:00,
2013-04-30 05:37:00,57.9,53.1,30.10,SW,225,3.5,3.5,84,0.00,,,0.00,WeatherDisplay:10.37,2013-04-30 09:37:00,
2013-04-30 05:42:00,57.9,53.1,30.10,South,180,3.5,3.5,84,0.00,,,0.00,WeatherDisplay:10.37,2013-04-30 09:42:00,
2013-04-30 05:47:00,57.7,52.9,30.10,South,180,2.3,2.3,84,0.00,,,0.00,WeatherDisplay:10.37,2013-04-30 09:47:00,
2013-04-30 05:52:00,57.7,52.9,30.10,SSW,202,3.5,3.5,84,0.00,,,0.00,WeatherDisplay:10.37,2013-04-30 09:52:00,
2013-04-30 05:57:00,57.7,52.9,30.10,West,270,4.6,4.6,84,0.00,,,0.00,WeatherDisplay:10.37,2013-04-30 09:57:00,
2013-04-30 06:02:00,57.6,52.8,30.10,SE,135,3.5,3.5,84,0.00,,,0.00,WeatherDisplay:10.37,2013-04-30 10:02:00,
2013-04-30 06:07:00,57.6,52.8,30.10,SW,225,3.5,3.5,84,0.00,,,0.00,WeatherDisplay:10.37,2013-04-30 10:07:00,
2013-04-30 06:12:00,57.6,52.8,30.10,SW,225,3.5,3.5,84,0.00,,,0.00,WeatherDisplay:10.37,2013-04-30 10:12:00,
2013-04-30 06:17:00,57.6,52.8,30.11,SW,225,4.6,4.6,84,0.00,,,0.00,WeatherDisplay:10.37,2013-04-30 10:17:00,
2013-04-30 06:22:00,57.6,52.8,30.11,South,180,3.5,3.5,84,0.00,,,0.00,WeatherDisplay:10.37,2013-04-30 10:22:00,
2013-04-30 06:27:00,57.6,52.8,30.11,SW,225,2.3,2.3,84,0.00,,,0.00,WeatherDisplay:10.37,2013-04-30 10:27:00,
2013-04-30 06:32:00,57.6,52.8,30.11,SE,135,1.6,1.6,84,0.00,,,0.00,WeatherDisplay:10.37,2013-04-30 10:32:00,
2013-04-30 06:37:00,57.4,52.6,30.11,SW,225,1.1,1.1,84,0.00,,,0.00,WeatherDisplay:10.37,2013-04-30 10:37:00,
2013-04-30 06:42:00,57.4,52.6,30.11,SW,225,1.1,1.1,84,0.00,,,0.00,WeatherDisplay:10.37,2013-04-30 10:42:00,
2013-04-30 06:47:00,57.4,52.6,30.12,North,0,1.1,1.1,84,0.00,,,0.00,WeatherDisplay:10.37,2013-04-30 10:47:00,
2013-04-30 06:52:00,56.8,52.4,30.11,SW,225,2.3,2.3,85,0.00,,,0.00,WeatherDisplay:10.37,2013-04-30 10:52:00,
2013-04-30 06:57:00,56.8,52.4,30.12,SW,225,2.3,2.3,85,0.00,,,0.00,WeatherDisplay:10.37,2013-04-30 10:57:00,
2013-04-30 07:02:00,56.7,52.5,30.12,South,180,1.1,0.0,86,0.00,,,0.00,WeatherDisplay:10.37,2013-04-30 11:02:00,
2013-04-30 07:07:00,56.7,52.5,30.12,South,180,1.1,1.1,86,0.00,,,0.00,WeatherDisplay:10.37,2013-04-30 11:07:00,
2013-04-30 07:12:00,56.7,52.5,30.13,SE,135,1.1,1.1,86,0.00,,,0.00,WeatherDisplay:10.37,2013-04-30 11:12:00,
2013-04-30 07:17:00,56.7,52.5,30.13,SE,135,1.1,1.1,86,0.00,,,0.00,WeatherDisplay:10.37,2013-04-30 11:17:00,
2013-04-30 07:22:00,56.7,52.5,30.13,North,0,1.1,1.1,86,0.00,,,0.00,WeatherDisplay:10.37,2013-04-30 11:22:00,
2013-04-30 07:27:00,56.7,52.5,30.13,North,0,1.1,1.1,86,0.00,,,0.00,WeatherDisplay:10.37,2013-04-30 11:27:00,
2013-04-30 07:32:00,58.3,53.5,30.13,SW,225,3.5,3.5,84,0.00,,,0.00,WeatherDisplay:10.37,2013-04-30 11:32:00,
2013-04-30 07:37:00,58.3,53.5,30.14,SE,135,1.1,1.1,84,0.00,,,0.00,WeatherDisplay:10.37,2013-04-30 11:37:00,
2013-04-30 07:42:00,58.6,53.5,30.14,SE,135,1.1,0.0,83,0.00,,,0.00,WeatherDisplay:10.37,2013-04-30 11:42:00,
2013-04-30 07:47:00,59.0,53.5,30.14,SE,135,3.5,3.5,82,0.00,,,0.00,WeatherDisplay:10.37,2013-04-30 11:47:00,
2013-04-30 07:52:00,59.4,53.5,30.14,SW,225,4.6,4.6,81,0.00,,,0.00,WeatherDisplay:10.37,2013-04-30 11:52:00,
2013-04-30 07:57:00,59.7,53.5,30.14,South,180,3.5,3.5,80,0.00,,,0.00,WeatherDisplay:10.37,2013-04-30 11:57:00,
2013-04-30 08:03:00,60.1,53.5,30.14,NE,45,5.8,5.8,79,0.00,,,0.00,WeatherDisplay:10.37,2013-04-30 12:03:00,
2013-04-30 08:08:00,60.4,53.5,30.14,SW,225,4.6,4.6,78,0.00,,,0.00,WeatherDisplay:10.37,2013-04-30 12:08:00,
2013-04-30 08:13:00,61.0,53.7,30.14,SE,135,3.5,3.5,77,0.00,,,0.00,WeatherDisplay:10.37,2013-04-30 12:13:00,
2013-04-30 08:18:00,61.0,53.4,30.14,West,270,3.5,3.5,76,0.00,,,0.00,WeatherDisplay:10.37,2013-04-30 12:18:00,
2013-04-30 08:23:00,61.2,53.5,30.14,SW,225,2.3,2.3,76,0.00,,,0.00,WeatherDisplay:10.37,2013-04-30 12:23:00,
2013-04-30 08:28:00,61.0,53.4,30.14,South,180,5.8,5.8,76,0.00,,,0.00,WeatherDisplay:10.37,2013-04-30 12:28:00,
2013-04-30 08:33:00,60.8,53.2,30.14,West,270,5.8,5.8,76,0.00,,,0.00,WeatherDisplay:10.37,2013-04-30 12:33:00,
2013-04-30 08:38:00,61.0,53.4,30.14,SSW,202,5.8,5.8,76,0.00,,,0.00,WeatherDisplay:10.37,2013-04-30 12:38:00,
2013-04-30 08:43:00,61.3,53.7,30.14,West,270,6.9,6.9,76,0.00,,,0.00,WeatherDisplay:10.37,2013-04-30 12:43:00,
2013-04-30 08:48:00,62.2,54.2,30.14,West,270,9.2,9.2,75,0.00,,,0.00,WeatherDisplay:10.37,2013-04-30 12:48:00,
2013-04-30 08:53:00,63.0,54.2,30.14,South,180,5.8,5.8,73,0.00,,,0.00,WeatherDisplay:10.37,2013-04-30 12:53:00,
2013-04-30 08:58:00,63.3,54.1,30.14,South,180,5.8,5.8,72,0.00,,,0.00,WeatherDisplay:10.37,2013-04-30 12:58:00,
2013-04-30 09:03:00,63.7,54.1,30.14,South,180,11.5,11.5,71,0.00,,,0.00,WeatherDisplay:10.37,2013-04-30 13:03:00,
2013-04-30 09:08:00,63.7,54.1,30.14,SE,135,8.1,8.1,71,0.00,,,0.00,WeatherDisplay:10.37,2013-04-30 13:08:00,
2013-04-30 09:13:00,63.7,54.1,30.14,NW,315,9.2,9.2,71,0.00,,,0.00,WeatherDisplay:10.37,2013-04-30 13:13:00,
2013-04-30 09:18:00,63.3,53.8,30.14,SW,225,6.9,6.9,71,0.00,,,0.00,WeatherDisplay:10.37,2013-04-30 13:18:00,
2013-04-30 09:23:00,63.3,53.8,30.14,South,180,8.1,8.1,71,0.00,,,0.00,WeatherDisplay:10.37,2013-04-30 13:23:00,
2013-04-30 09:28:00,63.5,53.9,30.15,SE,135,6.0,6.0,71,0.00,,,0.00,WeatherDisplay:10.37,2013-04-30 13:28:00,
2013-04-30 09:33:00,63.3,53.8,30.14,SW,225,5.8,5.8,71,0.00,,,0.00,WeatherDisplay:10.37,2013-04-30 13:33:00,
2013-04-30 09:38:00,63.7,54.1,30.14,East,90,8.1,8.1,71,0.00,,,0.00,WeatherDisplay:10.37,2013-04-30 13:38:00,
2013-04-30 09:43:00,63.7,54.1,30.14,South,180,6.9,6.9,71,0.00,,,0.00,WeatherDisplay:10.37,2013-04-30 13:43:00,
2013-04-30 09:48:00,64.2,54.2,30.14,South,180,5.8,5.8,70,0.00,,,0.00,WeatherDisplay:10.37,2013-04-30 13:48:00,
2013-04-30 09:53:00,64.8,54.3,30.14,SE,135,5.8,5.8,69,0.00,,,0.00,WeatherDisplay:10.37,2013-04-30 13:53:00,
2013-04-30 09:58:00,65.5,54.6,30.14,South,180,6.9,6.9,68,0.00,,,0.00,WeatherDisplay:10.37,2013-04-30 13:58:00,
2013-04-30 10:03:00,65.5,54.2,30.14,SW,225,8.1,8.1,67,0.00,,,0.00,WeatherDisplay:10.37,2013-04-30 14:03:00,
2013-04-30 10:08:00,65.3,54.1,30.15,SW,225,10.4,10.4,67,0.00,,,0.00,WeatherDisplay:10.37,2013-04-30 14:08:00,
2013-04-30 10:13:00,65.5,53.8,30.15,South,180,9.2,9.2,66,0.00,,,0.00,WeatherDisplay:10.37,2013-04-30 14:13:00,
2013-04-30 10:18:00,65.5,53.8,30.15,South,180,9.2,9.2,66,0.00,,,0.00,WeatherDisplay:10.37,2013-04-30 14:18:00,
2013-04-30 10:23:00,65.8,54.2,30.15,West,270,5.8,5.8,66,0.00,,,0.00,WeatherDisplay:10.37,2013-04-30 14:23:00,
2013-04-30 10:28:00,65.8,54.2,30.15,WNW,292,5.8,5.8,66,0.00,,,0.00,WeatherDisplay:10.37,2013-04-30 14:28:00,
2013-04-30 10:33:00,65.8,54.2,30.16,SW,225,6.9,6.9,66,0.00,,,0.00,WeatherDisplay:10.37,2013-04-30 14:33:00,
2013-04-30 10:38:00,66.2,54.1,30.16,NW,315,4.6,4.6,65,0.00,,,0.00,WeatherDisplay:10.37,2013-04-30 14:38:00,
2013-04-30 10:43:00,66.6,54.0,30.16,South,180,5.8,5.8,64,0.00,,,0.00,WeatherDisplay:10.37,2013-04-30 14:43:00,
2013-04-30 10:48:00,66.7,54.2,30.16,SW,225,6.9,6.9,64,0.00,,,0.00,WeatherDisplay:10.37,2013-04-30 14:48:00,
2013-04-30 10:53:00,66.7,53.7,30.16,SE,135,4.6,4.6,63,0.00,,,0.00,WeatherDisplay:10.37,2013-04-30 14:53:00,
2013-04-30 10:58:00,67.5,54.4,30.16,SW,225,5.8,5.8,63,0.00,,,0.00,WeatherDisplay:10.37,2013-04-30 14:58:00,
2013-04-30 11:03:00,68.4,54.8,30.16,SE,135,3.5,3.8,62,0.00,,,0.00,WeatherDisplay:10.37,2013-04-30 15:03:00,
2013-04-30 11:08:00,69.1,54.6,30.15,NW,315,6.9,6.9,60,0.00,,,0.00,WeatherDisplay:10.37,2013-04-30 15:08:00,
2013-04-30 11:13:00,69.8,53.9,30.16,South,180,5.8,5.8,57,0.00,,,0.00,WeatherDisplay:10.37,2013-04-30 15:13:00,
2013-04-30 11:18:00,70.0,54.0,30.16,South,180,3.5,3.8,57,0.00,,,0.00,WeatherDisplay:10.37,2013-04-30 15:18:00,
2013-04-30 11:23:00,70.0,53.6,30.15,South,180,5.8,5.8,56,0.00,,,0.00,WeatherDisplay:10.37,2013-04-30 15:23:00,
2013-04-30 15:42:00,76.6,53.7,30.16,West,270,3.5,3.5,45,0.00,CLR,,0.00,WeatherDisplay:10.37,2013-04-30 19:42:00,
2013-04-30 15:47:00,77.4,53.7,30.16,SW,225,6.9,6.9,44,0.00,CLR,,0.00,WeatherDisplay:10.37,2013-04-30 19:47:00,
2013-04-30 15:52:00,78.4,54.7,30.16,East,90,2.3,2.3,44,0.00,CLR,,0.00,WeatherDisplay:10.37,2013-04-30 19:52:00,
2013-04-30 15:57:00,79.3,54.3,30.16,SW,225,8.1,8.1,42,0.00,CLR,,0.00,WeatherDisplay:10.37,2013-04-30 19:57:00,
2013-04-30 16:02:00,79.0,53.3,30.15,SW,225,3.5,3.5,41,0.00,CLR,,0.00,WeatherDisplay:10.37,2013-04-30 20:02:00,
2013-04-30 16:07:00,79.2,54.1,30.15,North,0,3.5,3.5,42,0.00,CLR,,0.00,WeatherDisplay:10.37,2013-04-30 20:07:00,
2013-04-30 16:12:00,79.5,53.8,30.15,SW,225,4.6,4.6,41,0.00,CLR,,0.00,WeatherDisplay:10.37,2013-04-30 20:12:00,
2013-04-30 16:17:00,78.1,53.1,30.14,West,270,8.1,8.1,42,0.00,CLR,,0.00,WeatherDisplay:10.37,2013-04-30 20:17:00,
2013-04-30 16:22:00,77.2,52.9,30.14,SW,225,3.5,3.5,43,0.00,CLR,,0.00,WeatherDisplay:10.37,2013-04-30 20:22:00,
2013-04-30 16:27:00,76.6,53.1,30.14,SW,225,4.6,4.6,44,0.00,CLR,,0.00,WeatherDisplay:10.37,2013-04-30 20:27:00,
2013-04-30 16:32:00,76.1,52.6,30.14,South,180,5.8,5.8,44,0.00,CLR,,0.00,WeatherDisplay:10.37,2013-04-30 20:32:00,
2013-04-30 16:38:00,75.6,52.1,30.14,SW,225,4.6,4.6,44,0.00,CLR,,0.00,WeatherDisplay:10.37,2013-04-30 20:38:00,
2013-04-30 16:43:00,74.7,52.5,30.13,SW,225,4.6,4.6,46,0.00,CLR,,0.00,WeatherDisplay:10.37,2013-04-30 20:43:00,
2013-04-30 16:48:00,73.6,51.5,30.13,NW,315,5.8,0.0,46,0.00,CLR,,0.00,WeatherDisplay:10.37,2013-04-30 20:48:00,
2013-04-30 16:53:00,73.9,52.4,30.14,South,180,4.6,4.6,47,0.00,CLR,,0.00,WeatherDisplay:10.37,2013-04-30 20:53:00,
2013-04-30 16:58:00,73.6,52.1,30.13,SW,225,5.8,5.8,47,0.00,CLR,,0.00,WeatherDisplay:10.37,2013-04-30 20:58:00,
2013-04-30 17:03:00,73.4,51.4,30.13,SW,225,5.8,5.8,46,0.00,CLR,,0.00,WeatherDisplay:10.37,2013-04-30 21:03:00,
2013-04-30 17:08:00,73.0,51.6,30.12,East,90,3.5,3.5,47,0.00,CLR,,0.00,WeatherDisplay:10.37,2013-04-30 21:08:00,
2013-04-30 17:13:00,72.9,51.4,30.12,SE,135,8.1,8.1,47,0.00,CLR,,0.00,WeatherDisplay:10.37,2013-04-30 21:13:00,
2013-04-30 17:18:00,72.9,51.4,30.12,SE,135,2.3,2.3,47,0.00,CLR,,0.00,WeatherDisplay:10.37,2013-04-30 21:18:00,
2013-04-30 17:23:00,73.0,51.6,30.12,South,180,4.6,4.6,47,0.00,CLR,,0.00,WeatherDisplay:10.37,2013-04-30 21:23:00,
2013-04-30 17:28:00,73.6,52.1,30.12,East,90,4.6,4.6,47,0.00,CLR,,0.00,WeatherDisplay:10.37,2013-04-30 21:28:00,
2013-04-30 17:33:00,74.5,52.9,30.12,East,90,5.8,5.8,47,0.00,CLR,,0.00,WeatherDisplay:10.37,2013-04-30 21:33:00,
2013-04-30 17:38:00,75.0,52.8,30.11,South,180,4.6,4.6,46,0.00,CLR,,0.00,WeatherDisplay:10.37,2013-04-30 21:38:00,
2013-04-30 17:43:00,75.6,52.7,30.11,SE,135,2.3,2.3,45,0.00,CLR,,0.00,WeatherDisplay:10.37,2013-04-30 21:43:00,
2013-04-30 17:48:00,75.2,52.4,30.11,SE,135,3.1,3.1,45,0.00,CLR,,0.00,WeatherDisplay:10.37,2013-04-30 21:48:00,
2013-04-30 17:53:00,75.0,52.8,30.10,South,180,5.8,5.8,46,0.00,CLR,,0.00,WeatherDisplay:10.37,2013-04-30 21:53:00,
2013-04-30 17:58:00,75.2,52.4,30.11,NW,315,4.6,4.6,45,0.00,CLR,,0.00,WeatherDisplay:10.37,2013-04-30 21:58:00,
2013-04-30 18:03:00,75.2,52.4,30.10,West,270,5.8,5.8,45,0.00,CLR,,0.00,WeatherDisplay:10.37,2013-04-30 22:03:00,
2013-04-30 18:08:00,75.0,52.8,30.10,South,180,3.5,5.4,46,0.00,CLR,,0.00,WeatherDisplay:10.37,2013-04-30 22:08:00,
2013-04-30 18:13:00,74.7,52.5,30.10,SSW,202,5.8,5.8,46,0.00,CLR,,0.00,WeatherDisplay:10.37,2013-04-30 22:13:00,
2013-04-30 18:18:00,73.9,52.4,30.09,SE,135,6.9,6.9,47,0.00,CLR,,0.00,WeatherDisplay:10.37,2013-04-30 22:18:00,
2013-04-30 18:23:00,73.9,52.4,30.08,East,90,5.8,5.8,47,0.00,CLR,,0.00,WeatherDisplay:10.37,2013-04-30 22:23:00,
2013-04-30 18:28:00,73.9,53.0,30.08,South,180,4.6,4.6,48,0.00,CLR,,0.00,WeatherDisplay:10.37,2013-04-30 22:28:00,
2013-04-30 18:33:00,73.9,53.0,30.08,SE,135,8.3,8.3,48,0.00,CLR,,0.00,WeatherDisplay:10.37,2013-04-30 22:33:00,
2013-04-30 18:38:00,73.9,52.4,30.08,SE,135,5.8,5.8,47,0.00,CLR,,0.00,WeatherDisplay:10.37,2013-04-30 22:38:00,
2013-04-30 18:43:00,73.9,52.4,30.08,SE,135,5.8,5.8,47,0.00,CLR,,0.00,WeatherDisplay:10.37,2013-04-30 22:43:00,
2013-04-30 18:48:00,73.6,52.1,30.08,SE,135,11.5,11.5,47,0.00,CLR,,0.00,WeatherDisplay:10.37,2013-04-30 22:48:00,
2013-04-30 18:53:00,73.6,52.1,30.08,East,90,8.1,8.1,47,0.00,CLR,,0.00,WeatherDisplay:10.37,2013-04-30 22:53:00,
2013-04-30 18:58:00,73.9,51.8,30.08,South,180,11.5,11.5,46,0.00,CLR,,0.00,WeatherDisplay:10.37,2013-04-30 22:58:00,
2013-04-30 19:03:00,73.9,51.8,30.08,East,90,10.4,10.4,46,0.00,CLR,,0.00,WeatherDisplay:10.37,2013-04-30 23:03:00,
2013-04-30 19:08:00,73.6,51.5,30.09,SW,225,8.1,8.1,46,0.00,CLR,,0.00,WeatherDisplay:10.37,2013-04-30 23:08:00,
2013-04-30 19:13:00,73.4,51.4,30.09,South,180,8.1,8.1,46,0.00,CLR,,0.00,WeatherDisplay:10.37,2013-04-30 23:13:00,
2013-04-30 19:18:00,73.0,50.4,30.09,South,180,5.8,5.8,45,0.00,CLR,,0.00,WeatherDisplay:10.37,2013-04-30 23:18:00,
2013-04-30 19:23:00,72.9,50.9,30.10,SE,135,8.1,8.1,46,0.00,CLR,,0.00,WeatherDisplay:10.37,2013-04-30 23:23:00,
2013-04-30 19:28:00,72.3,50.4,30.11,SW,225,8.1,8.1,46,0.00,CLR,,0.00,WeatherDisplay:10.37,2013-04-30 23:28:00,
2013-04-30 19:33:00,72.1,50.8,30.11,South,180,4.6,4.6,47,0.00,CLR,,0.00,WeatherDisplay:10.37,2013-04-30 23:33:00,
2013-04-30 19:38:00,71.4,50.7,30.11,West,270,9.2,9.2,48,0.00,CLR,,0.00,WeatherDisplay:10.37,2013-04-30 23:38:00,
2013-04-30 19:43:00,71.1,50.9,30.12,SE,135,12.7,12.7,49,0.00,CLR,,0.00,WeatherDisplay:10.37,2013-04-30 23:43:00,
2013-04-30 19:48:00,70.7,50.6,30.12,South,180,10.4,10.4,49,0.00,CLR,,0.00,WeatherDisplay:10.37,2013-04-30 23:48:00,
2013-04-30 19:53:00,70.3,51.3,30.12,SE,135,10.4,10.4,51,0.00,CLR,,0.00,WeatherDisplay:10.37,2013-04-30 23:53:00,
2013-04-30 19:58:00,70.2,51.2,30.12,SE,135,5.8,5.8,51,0.00,CLR,,0.00,WeatherDisplay:10.37,2013-04-30 23:58:00,
2013-04-30 20:03:00,69.6,51.7,30.13,SW,225,8.1,8.1,53,0.00,CLR,,0.00,WeatherDisplay:10.37,2013-05-01 00:03:00,
2013-04-30 20:08:00,69.3,51.4,30.13,SE,135,10.4,10.4,53,0.00,CLR,,0.00,WeatherDisplay:10.37,2013-05-01 00:08:00,
2013-04-30 20:13:00,68.9,51.1,30.13,SE,135,10.4,10.4,53,0.00,CLR,,0.00,WeatherDisplay:10.37,2013-05-01 00:13:00,
2013-04-30 20:18:00,68.9,51.1,30.13,South,180,8.1,8.1,53,0.00,CLR,,0.00,WeatherDisplay:10.37,2013-05-01 00:18:00,
2013-04-30 20:23:00,68.7,51.4,30.13,SE,135,12.7,12.7,54,0.00,CLR,,0.00,WeatherDisplay:10.37,2013-05-01 00:23:00,
2013-04-30 20:28:00,68.5,51.2,30.13,East,90,6.9,6.9,54,0.00,CLR,,0.00,WeatherDisplay:10.37,2013-05-01 00:28:00,
2013-04-30 20:33:00,68.4,51.1,30.12,SE,135,15.0,15.0,54,0.00,CLR,,0.00,WeatherDisplay:10.37,2013-05-01 00:33:00,
2013-04-30 20:38:00,68.2,50.9,30.13,East,90,10.4,10.4,54,0.00,CLR,,0.00,WeatherDisplay:10.37,2013-05-01 00:38:00,
2013-04-30 20:43:00,68.2,50.9,30.13,SE,135,11.5,11.5,54,0.00,CLR,,0.00,WeatherDisplay:10.37,2013-05-01 00:43:00,
2013-04-30 20:48:00,68.0,50.7,30.13,South,180,9.2,9.2,54,0.00,CLR,,0.00,WeatherDisplay:10.37,2013-05-01 00:48:00,
2013-04-30 20:53:00,67.8,51.1,30.13,SE,135,8.1,8.1,55,0.00,CLR,,0.00,WeatherDisplay:10.37,2013-05-01 00:53:00,
2013-04-30 20:58:00,67.6,51.4,30.14,SE,135,12.7,12.7,56,0.00,CLR,,0.00,WeatherDisplay:10.37,2013-05-01 00:58:00,
2013-04-30 21:03:00,67.3,51.0,30.14,South,180,8.1,8.1,56,0.00,CLR,,0.00,WeatherDisplay:10.37,2013-05-01 01:03:00,
2013-04-30 21:08:00,67.3,51.0,30.14,East,90,6.9,6.9,56,0.00,CLR,,0.00,WeatherDisplay:10.37,2013-05-01 01:08:00,
2013-04-30 21:13:00,67.1,50.9,30.14,SE,135,10.4,10.4,56,0.00,CLR,,0.00,WeatherDisplay:10.37,2013-05-01 01:13:00,
2013-04-30 21:18:00,66.9,50.7,30.15,South,180,11.5,11.5,56,0.00,CLR,,0.00,WeatherDisplay:10.37,2013-05-01 01:18:00,
2013-04-30 21:23:00,66.7,51.0,30.15,SE,135,8.1,8.1,57,0.00,CLR,,0.00,WeatherDisplay:10.37,2013-05-01 01:23:00,
2013-04-30 21:29:00,66.4,50.7,30.16,East,90,6.9,6.9,57,0.00,CLR,,0.00,WeatherDisplay:10.37,2013-05-01 01:29:00,
2013-04-30 21:34:00,66.0,51.3,30.17,South,180,4.6,4.6,59,0.00,CLR,,0.00,WeatherDisplay:10.37,2013-05-01 01:34:00,
2013-04-30 21:39:00,65.8,51.1,30.16,SE,135,10.4,10.4,59,0.00,CLR,,0.00,WeatherDisplay:10.37,2013-05-01 01:39:00,
2013-04-30 21:44:00,65.8,51.1,30.17,SE,135,8.1,8.1,59,0.00,CLR,,0.00,WeatherDisplay:10.37,2013-05-01 01:44:00,
2013-04-30 21:49:00,65.7,50.9,30.17,NW,315,3.5,3.5,59,0.00,CLR,,0.00,WeatherDisplay:10.37,2013-05-01 01:49:00,
2013-04-30 21:54:00,65.5,50.8,30.17,NW,315,8.1,8.1,59,0.00,CLR,,0.00,WeatherDisplay:10.37,2013-05-01 01:54:00,
2013-04-30 21:59:00,65.5,51.2,30.18,SW,225,10.4,10.4,60,0.00,CLR,,0.00,WeatherDisplay:10.37,2013-05-01 01:59:00,
2013-04-30 22:04:00,65.3,51.1,30.18,SW,225,13.8,13.8,60,0.00,CLR,,0.00,WeatherDisplay:10.37,2013-05-01 02:04:00,
2013-04-30 22:09:00,65.1,50.9,30.18,SW,225,8.1,8.1,60,0.00,CLR,,0.00,WeatherDisplay:10.37,2013-05-01 02:09:00,
2013-04-30 22:14:00,64.8,50.5,30.18,South,180,8.1,8.1,60,0.00,CLR,,0.00,WeatherDisplay:10.37,2013-05-01 02:14:00,
2013-04-30 22:19:00,64.6,50.4,30.18,SE,135,8.1,8.1,60,0.00,CLR,,0.00,WeatherDisplay:10.37,2013-05-01 02:19:00,
2013-04-30 22:24:00,64.4,50.2,30.18,SW,225,5.8,5.8,60,0.00,CLR,,0.00,WeatherDisplay:10.37,2013-05-01 02:24:00,
2013-04-30 22:29:00,64.0,50.3,30.18,SW,225,5.8,5.8,61,0.00,CLR,,0.00,WeatherDisplay:10.37,2013-05-01 02:29:00,
2013-04-30 22:34:00,63.9,50.6,30.18,SW,225,8.1,8.1,62,0.00,CLR,,0.00,WeatherDisplay:10.37,2013-05-01 02:34:00,
2013-04-30 22:39:00,63.7,50.4,30.19,South,180,5.8,5.8,62,0.00,CLR,,0.00,WeatherDisplay:10.37,2013-05-01 02:39:00,
2013-04-30 22:44:00,63.3,50.1,30.19,SE,135,9.2,9.2,62,0.00,CLR,,0.00,WeatherDisplay:10.37,2013-05-01 02:44:00,
2013-04-30 22:49:00,63.3,50.1,30.19,SE,135,6.9,6.9,62,0.00,CLR,,0.00,WeatherDisplay:10.37,2013-05-01 02:49:00,
2013-04-30 22:54:00,63.3,50.1,30.19,East,90,6.9,6.9,62,0.00,CLR,,0.00,WeatherDisplay:10.37,2013-05-01 02:54:00,
2013-04-30 22:59:00,63.0,49.7,30.18,SE,135,6.9,6.9,62,0.00,CLR,,0.00,WeatherDisplay:10.37,2013-05-01 02:59:00,
2013-04-30 23:04:00,63.0,50.2,30.19,East,90,10.4,10.4,63,0.00,CLR,,0.00,WeatherDisplay:10.37,2013-05-01 03:04:00,
2013-04-30 23:09:00,63.0,50.2,30.19,SE,135,4.6,4.6,63,0.00,CLR,,0.00,WeatherDisplay:10.37,2013-05-01 03:09:00,
2013-04-30 23:14:00,63.0,50.2,30.19,South,180,5.8,5.8,63,0.00,CLR,,0.00,WeatherDisplay:10.37,2013-05-01 03:14:00,
2013-04-30 23:19:00,62.8,50.0,30.19,SW,225,12.7,12.7,63,0.00,CLR,,0.00,WeatherDisplay:10.37,2013-05-01 03:19:00,
2013-04-30 23:24:00,63.0,50.2,30.19,South,180,6.9,6.9,63,0.00,CLR,,0.00,WeatherDisplay:10.37,2013-05-01 03:24:00,
2013-04-30 23:29:00,62.8,50.0,30.19,South,180,6.9,6.9,63,0.00,CLR,,0.00,WeatherDisplay:10.37,2013-05-01 03:29:00,
2013-04-30 23:34:00,62.6,49.8,30.19,SW,225,4.6,4.6,63,0.00,CLR,,0.00,WeatherDisplay:10.37,2013-05-01 03:34:00,
2013-04-30 23:39:00,62.6,49.8,30.19,South,180,10.4,10.4,63,0.00,CLR,,0.00,WeatherDisplay:10.37,2013-05-01 03:39:00,
2013-04-30 23:44:00,62.6,49.8,30.19,South,180,5.8,5.8,63,0.00,CLR,,0.00,WeatherDisplay:10.37,2013-05-01 03:44:00,
2013-04-30 23:49:00,62.6,49.8,30.20,WSW,248,9.2,9.2,63,0.00,CLR,,0.00,WeatherDisplay:10.37,2013-05-01 03:49:00,
2013-04-30 23:54:00,62.6,49.8,30.20,SE,135,13.8,13.8,63,0.00,CLR,,0.00,WeatherDisplay:10.37,2013-05-01 03:54:00,
2013-04-30 23:59:00,62.6,49.8,30.20,South,180,6.9,6.9,63,0.00,CLR,,0.00,WeatherDisplay:10.37,2013-05-01 03:59:00,